createdAt,value
2017-11-09T00:00:25.666Z,0
2017-11-09T00:01:27.547Z,0
2017-11-09T00:02:29.435Z,0
2017-11-09T00:03:31.322Z,0
2017-11-09T00:04:33.143Z,0
2017-11-09T00:05:34.956Z,0
2017-11-09T00:06:36.842Z,0
2017-11-09T00:07:38.727Z,0
2017-11-09T00:08:40.613Z,0
2017-11-09T00:09:54.760Z,0
2017-11-09T00:10:56.645Z,0
2017-11-09T00:11:58.533Z,0
2017-11-09T00:13:00.416Z,0
2017-11-09T00:14:02.233Z,0
2017-11-09T00:15:04.050Z,0
2017-11-09T00:16:05.932Z,0
2017-11-09T00:17:07.816Z,0
2017-11-09T00:18:09.698Z,0
2017-11-09T00:19:23.879Z,0
2017-11-09T00:20:25.763Z,0
2017-11-09T00:21:27.653Z,0
2017-11-09T00:22:29.534Z,0
2017-11-09T00:23:31.354Z,0
2017-11-09T00:24:33.187Z,0
2017-11-09T00:25:35.054Z,0
2017-11-09T00:26:36.938Z,0
2017-11-09T00:27:38.824Z,0
2017-11-09T00:28:53.015Z,0
2017-11-09T00:29:54.900Z,0
2017-11-09T00:30:56.789Z,0
2017-11-09T00:31:58.673Z,0
2017-11-09T00:33:00.492Z,0
2017-11-09T00:34:02.308Z,0
2017-11-09T00:35:04.191Z,0
2017-11-09T00:36:06.075Z,0
2017-11-09T00:37:07.958Z,0
2017-11-09T00:38:22.108Z,0
2017-11-09T00:39:23.991Z,0
2017-11-09T00:40:25.879Z,0
2017-11-09T00:41:27.761Z,0
2017-11-09T00:42:29.583Z,0
2017-11-09T00:43:31.401Z,0
2017-11-09T00:44:33.284Z,0
2017-11-09T00:45:35.175Z,0
2017-11-09T00:46:37.054Z,0
2017-11-09T00:47:51.204Z,0
2017-11-09T00:48:53.087Z,0
2017-11-09T00:49:54.973Z,0
2017-11-09T00:50:56.854Z,0
2017-11-09T00:51:58.674Z,0
2017-11-09T00:53:00.489Z,0
2017-11-09T00:54:02.373Z,0
2017-11-09T00:55:04.257Z,0
2017-11-09T00:56:06.138Z,0
2017-11-09T00:57:20.288Z,0
2017-11-09T00:58:22.172Z,0
2017-11-09T00:59:24.061Z,0
2017-11-09T01:00:25.943Z,0
2017-11-09T01:01:27.763Z,0
2017-11-09T01:02:29.581Z,0
2017-11-09T01:03:31.467Z,0
2017-11-09T01:04:33.353Z,0
2017-11-09T01:05:35.238Z,0
2017-11-09T01:06:49.389Z,0
2017-11-09T01:07:51.272Z,0
2017-11-09T01:08:53.159Z,0
2017-11-09T01:09:55.042Z,0
2017-11-09T01:10:56.860Z,0
2017-11-09T01:11:58.680Z,0
2017-11-09T01:13:00.564Z,0
2017-11-09T01:14:02.450Z,0
2017-11-09T01:15:04.343Z,0
2017-11-09T01:16:18.485Z,0
2017-11-09T01:17:20.369Z,0
2017-11-09T01:18:22.256Z,0
2017-11-09T01:19:24.139Z,0
2017-11-09T01:20:25.963Z,0
2017-11-09T01:21:27.777Z,0
2017-11-09T01:22:29.664Z,0
2017-11-09T01:23:31.549Z,0
2017-11-09T01:24:33.433Z,0
2017-11-09T01:25:47.581Z,0
2017-11-09T01:26:49.464Z,0
2017-11-09T01:27:51.350Z,0
2017-11-09T01:28:53.233Z,0
2017-11-09T01:29:55.054Z,0
2017-11-09T01:30:56.877Z,0
2017-11-09T01:31:58.708Z,0
2017-11-09T01:33:00.523Z,0
2017-11-09T01:34:02.336Z,0
2017-11-09T01:35:16.511Z,0
2017-11-09T01:36:18.393Z,0
2017-11-09T01:37:20.280Z,0
2017-11-09T01:38:22.165Z,0
2017-11-09T01:39:23.983Z,0
2017-11-09T01:40:25.798Z,0
2017-11-09T01:41:27.686Z,0
2017-11-09T01:42:29.568Z,0
2017-11-09T01:43:31.453Z,0
2017-11-09T01:44:45.653Z,0
2017-11-09T01:45:47.541Z,0
2017-11-09T01:46:49.422Z,0
2017-11-09T01:47:51.312Z,0
2017-11-09T01:48:53.128Z,0
2017-11-09T01:49:54.944Z,0
2017-11-09T01:50:56.829Z,0
2017-11-09T01:51:58.748Z,0
2017-11-09T01:53:00.597Z,0
2017-11-09T01:54:14.799Z,0
2017-11-09T01:55:16.682Z,0
2017-11-09T01:56:18.579Z,0
2017-11-09T01:57:20.453Z,0
2017-11-09T01:58:22.275Z,0
2017-11-09T01:59:24.092Z,0
2017-11-09T02:00:25.977Z,0
2017-11-09T02:01:27.860Z,0
2017-11-09T02:02:29.744Z,0
2017-11-09T02:03:43.943Z,0
2017-11-09T02:04:45.830Z,0
2017-11-09T02:05:47.714Z,0
2017-11-09T02:06:49.598Z,0
2017-11-09T02:07:51.418Z,0
2017-11-09T02:08:53.235Z,0
2017-11-09T02:09:55.118Z,0
2017-11-09T02:10:56.962Z,0
2017-11-09T02:11:58.778Z,0
2017-11-09T02:13:12.967Z,0
2017-11-09T02:14:14.851Z,0
2017-11-09T02:15:16.737Z,0
2017-11-09T02:16:18.621Z,0
2017-11-09T02:17:20.437Z,0
2017-11-09T02:18:22.252Z,0
2017-11-09T02:19:24.136Z,0
2017-11-09T02:20:26.020Z,0
2017-11-09T02:21:27.902Z,0
2017-11-09T02:22:42.050Z,0
2017-11-09T02:23:43.948Z,0
2017-11-09T02:24:45.832Z,0
2017-11-09T02:25:47.705Z,0
2017-11-09T02:26:49.526Z,0
2017-11-09T02:27:51.342Z,0
2017-11-09T02:28:53.225Z,0
2017-11-09T02:29:55.112Z,0
2017-11-09T02:30:56.997Z,0
2017-11-09T02:32:11.148Z,0
2017-11-09T02:33:13.030Z,0
2017-11-09T02:34:14.918Z,0
2017-11-09T02:35:16.800Z,0
2017-11-09T02:36:18.624Z,0
2017-11-09T02:37:20.436Z,0
2017-11-09T02:38:22.314Z,0
2017-11-09T02:39:24.194Z,0
2017-11-09T02:40:26.077Z,0
2017-11-09T02:41:40.225Z,0
2017-11-09T02:42:42.125Z,0
2017-11-09T02:43:43.988Z,0
2017-11-09T02:44:45.871Z,0
2017-11-09T02:45:47.685Z,0
2017-11-09T02:46:49.498Z,0
2017-11-09T02:47:51.381Z,0
2017-11-09T02:48:53.257Z,0
2017-11-09T02:49:55.098Z,0
2017-11-09T02:51:09.247Z,0
2017-11-09T02:52:11.130Z,0
2017-11-09T02:53:13.008Z,0
2017-11-09T02:54:14.890Z,0
2017-11-09T02:55:16.707Z,0
2017-11-09T02:56:18.522Z,0
2017-11-09T02:57:20.403Z,0
2017-11-09T02:58:22.282Z,0
2017-11-09T02:59:24.170Z,0
2017-11-09T03:00:38.311Z,0
2017-11-09T03:01:40.191Z,0
2017-11-09T03:02:42.072Z,0
2017-11-09T03:03:43.954Z,0
2017-11-09T03:04:45.769Z,0
2017-11-09T03:05:47.583Z,0
2017-11-09T03:06:49.466Z,0
2017-11-09T03:07:51.344Z,0
2017-11-09T03:08:53.227Z,0
2017-11-09T03:10:07.376Z,0
2017-11-09T03:11:09.257Z,0
2017-11-09T03:12:11.145Z,0
2017-11-09T03:13:13.020Z,0
2017-11-09T03:14:14.836Z,0
2017-11-09T03:15:16.649Z,0
2017-11-09T03:16:18.533Z,0
2017-11-09T03:17:20.420Z,0
2017-11-09T03:18:22.294Z,0
2017-11-09T03:19:36.441Z,0
2017-11-09T03:20:38.324Z,0
2017-11-09T03:21:40.205Z,0
2017-11-09T03:22:42.085Z,0
2017-11-09T03:23:43.905Z,0
2017-11-09T03:24:45.718Z,0
2017-11-09T03:25:47.600Z,0
2017-11-09T03:26:49.479Z,0
2017-11-09T03:27:51.363Z,0
2017-11-09T03:29:05.512Z,0
2017-11-09T03:30:07.431Z,0
2017-11-09T03:31:09.280Z,0
2017-11-09T03:32:11.161Z,0
2017-11-09T03:33:12.974Z,0
2017-11-09T03:34:14.790Z,0
2017-11-09T03:35:16.669Z,0
2017-11-09T03:36:18.545Z,0
2017-11-09T03:37:20.432Z,0
2017-11-09T03:38:34.574Z,0
2017-11-09T03:39:36.460Z,0
2017-11-09T03:40:38.338Z,0
2017-11-09T03:41:40.221Z,0
2017-11-09T03:42:42.038Z,0
2017-11-09T03:43:43.849Z,0
2017-11-09T03:44:45.729Z,0
2017-11-09T03:45:47.609Z,0
2017-11-09T03:46:49.490Z,0
2017-11-09T03:48:03.638Z,0
2017-11-09T03:49:05.523Z,0
2017-11-09T03:50:07.404Z,0
2017-11-09T03:51:09.287Z,0
2017-11-09T03:52:11.104Z,0
2017-11-09T03:53:12.914Z,0
2017-11-09T03:54:14.799Z,0
2017-11-09T03:55:16.677Z,0
2017-11-09T03:56:18.559Z,0
2017-11-09T03:57:32.756Z,0
2017-11-09T03:58:34.640Z,0
2017-11-09T03:59:36.519Z,0
2017-11-09T04:00:38.410Z,0
2017-11-09T04:01:40.216Z,0
2017-11-09T04:02:42.028Z,0
2017-11-09T04:03:43.912Z,0
2017-11-09T04:04:45.792Z,0
2017-11-09T04:05:47.673Z,0
2017-11-09T04:07:01.821Z,0
2017-11-09T04:08:03.702Z,0
2017-11-09T04:09:05.582Z,0
2017-11-09T04:10:07.463Z,0
2017-11-09T04:11:09.280Z,0
2017-11-09T04:12:11.094Z,0
2017-11-09T04:13:12.976Z,0
2017-11-09T04:14:14.855Z,0
2017-11-09T04:15:16.741Z,0
2017-11-09T04:16:30.946Z,0
2017-11-09T04:17:32.822Z,0
2017-11-09T04:18:34.701Z,0
2017-11-09T04:19:36.583Z,0
2017-11-09T04:20:38.398Z,0
2017-11-09T04:21:40.210Z,0
2017-11-09T04:22:42.091Z,0
2017-11-09T04:23:43.970Z,0
2017-11-09T04:24:45.852Z,0
2017-11-09T04:25:59.999Z,0
2017-11-09T04:27:01.881Z,0
2017-11-09T04:28:03.762Z,0
2017-11-09T04:29:05.642Z,0
2017-11-09T04:30:07.459Z,0
2017-11-09T04:31:09.273Z,0
2017-11-09T04:32:11.153Z,0
2017-11-09T04:33:13.031Z,0
2017-11-09T04:34:14.915Z,0
2017-11-09T04:35:29.063Z,0
2017-11-09T04:36:30.943Z,0
2017-11-09T04:37:32.828Z,0
2017-11-09T04:38:34.711Z,0
2017-11-09T04:39:36.529Z,0
2017-11-09T04:40:38.348Z,0
2017-11-09T04:41:40.224Z,0
2017-11-09T04:42:42.104Z,0
2017-11-09T04:43:43.986Z,0
2017-11-09T04:44:58.153Z,0
2017-11-09T04:46:00.030Z,0
2017-11-09T04:47:01.897Z,0
2017-11-09T04:48:03.775Z,0
2017-11-09T04:49:05.591Z,0
2017-11-09T04:50:07.405Z,0
2017-11-09T04:51:09.287Z,0
2017-11-09T04:52:11.168Z,0
2017-11-09T04:53:13.050Z,0
2017-11-09T04:54:27.209Z,0
2017-11-09T04:55:29.080Z,0
2017-11-09T04:56:30.965Z,0
2017-11-09T04:57:32.841Z,0
2017-11-09T04:58:34.659Z,0
2017-11-09T04:59:36.473Z,0
2017-11-09T05:00:38.359Z,0
2017-11-09T05:01:40.235Z,0
2017-11-09T05:02:42.120Z,0
2017-11-09T05:03:56.267Z,0
2017-11-09T05:04:58.273Z,0
2017-11-09T05:06:00.231Z,0
2017-11-09T05:07:02.122Z,0
2017-11-09T05:08:03.940Z,0
2017-11-09T05:09:05.752Z,0
2017-11-09T05:10:07.633Z,0
2017-11-09T05:11:09.515Z,0
2017-11-09T05:12:11.400Z,0
2017-11-09T05:13:25.547Z,0
2017-11-09T05:14:27.430Z,0
2017-11-09T05:15:29.315Z,0
2017-11-09T05:16:31.191Z,0
2017-11-09T05:17:33.011Z,0
2017-11-09T05:18:34.824Z,0
2017-11-09T05:19:36.707Z,0
2017-11-09T05:20:38.583Z,0
2017-11-09T05:21:40.475Z,0
2017-11-09T05:22:54.682Z,0
2017-11-09T05:23:56.554Z,0
2017-11-09T05:24:58.433Z,0
2017-11-09T05:26:00.316Z,0
2017-11-09T05:27:02.133Z,0
2017-11-09T05:28:03.946Z,0
2017-11-09T05:29:05.830Z,0
2017-11-09T05:30:07.705Z,0
2017-11-09T05:31:09.590Z,0
2017-11-09T05:32:23.737Z,0
2017-11-09T05:33:25.619Z,0
2017-11-09T05:34:27.501Z,0
2017-11-09T05:35:29.382Z,0
2017-11-09T05:36:31.198Z,0
2017-11-09T05:37:33.011Z,0
2017-11-09T05:38:34.895Z,0
2017-11-09T05:39:36.770Z,0
2017-11-09T05:40:38.653Z,0
2017-11-09T05:41:52.801Z,0
2017-11-09T05:42:54.685Z,0
2017-11-09T05:43:56.565Z,0
2017-11-09T05:44:58.444Z,0
2017-11-09T05:46:00.265Z,0
2017-11-09T05:47:02.078Z,0
2017-11-09T05:48:03.960Z,0
2017-11-09T05:49:05.839Z,0
2017-11-09T05:50:07.721Z,0
2017-11-09T05:51:21.873Z,0
2017-11-09T05:52:23.752Z,0
2017-11-09T05:53:25.635Z,0
2017-11-09T05:54:27.518Z,0
2017-11-09T05:55:29.336Z,0
2017-11-09T05:56:31.148Z,0
2017-11-09T05:57:33.030Z,0
2017-11-09T05:58:34.909Z,0
2017-11-09T05:59:36.795Z,0
2017-11-09T06:00:50.993Z,0
2017-11-09T06:01:52.877Z,0
2017-11-09T06:02:54.756Z,0
2017-11-09T06:03:56.635Z,0
2017-11-09T06:04:58.451Z,0
2017-11-09T06:06:00.269Z,0
2017-11-09T06:07:02.152Z,0
2017-11-09T06:08:04.036Z,0
2017-11-09T06:09:05.918Z,0
2017-11-09T06:10:20.067Z,0
2017-11-09T06:11:21.952Z,0
2017-11-09T06:12:23.834Z,0
2017-11-09T06:13:25.724Z,0
2017-11-09T06:14:27.537Z,0
2017-11-09T06:15:29.350Z,0
2017-11-09T06:16:31.231Z,0
2017-11-09T06:17:33.114Z,0
2017-11-09T06:18:34.997Z,0
2017-11-09T06:19:49.146Z,5
2017-11-09T06:20:51.030Z,5
2017-11-09T06:21:52.915Z,5
2017-11-09T06:22:54.800Z,5
2017-11-09T06:23:56.619Z,5
2017-11-09T06:24:58.437Z,5
2017-11-09T06:26:00.693Z,5
2017-11-09T06:27:02.541Z,5
2017-11-09T06:28:04.809Z,5
2017-11-09T06:29:19.003Z,5
2017-11-09T06:30:20.888Z,10
2017-11-09T06:31:22.771Z,10
2017-11-09T06:32:24.657Z,10
2017-11-09T06:33:26.481Z,10
2017-11-09T06:34:28.300Z,10
2017-11-09T06:35:30.181Z,10
2017-11-09T06:36:32.065Z,10
2017-11-09T06:37:33.954Z,15
2017-11-09T06:38:48.104Z,15
2017-11-09T06:39:49.992Z,15
2017-11-09T06:40:51.876Z,20
2017-11-09T06:41:53.757Z,20
2017-11-09T06:42:55.580Z,20
2017-11-09T06:43:57.398Z,20
2017-11-09T06:44:59.281Z,25
2017-11-09T06:46:01.167Z,25
2017-11-09T06:47:03.053Z,25
2017-11-09T06:48:17.208Z,25
2017-11-09T06:49:19.109Z,25
2017-11-09T06:50:20.980Z,25
2017-11-09T06:51:22.866Z,25
2017-11-09T06:52:24.684Z,25
2017-11-09T06:53:26.500Z,25
2017-11-09T06:54:28.314Z,25
2017-11-09T06:55:30.129Z,25
2017-11-09T06:56:31.947Z,25
2017-11-09T06:57:46.096Z,30
2017-11-09T06:58:47.983Z,30
2017-11-09T06:59:49.867Z,35
2017-11-09T07:00:51.754Z,30
2017-11-09T07:01:53.573Z,30
2017-11-09T07:02:55.395Z,30
2017-11-09T07:03:57.273Z,30
2017-11-09T07:04:59.162Z,35
2017-11-09T07:06:01.048Z,35
2017-11-09T07:07:15.204Z,35
2017-11-09T07:08:17.088Z,40
2017-11-09T07:09:18.975Z,40
2017-11-09T07:10:20.861Z,40
2017-11-09T07:11:22.683Z,40
2017-11-09T07:12:24.501Z,40
2017-11-09T07:13:26.344Z,40
2017-11-09T07:14:28.190Z,40
2017-11-09T07:15:30.007Z,40
2017-11-09T07:16:44.156Z,40
2017-11-09T07:17:46.043Z,40
2017-11-09T07:18:47.929Z,45
2017-11-09T07:19:49.815Z,45
2017-11-09T07:20:51.637Z,45
2017-11-09T07:21:53.457Z,45
2017-11-09T07:22:55.352Z,45
2017-11-09T07:23:57.240Z,45
2017-11-09T07:24:59.132Z,45
2017-11-09T07:26:13.288Z,45
2017-11-09T07:27:15.182Z,50
2017-11-09T07:28:17.062Z,50
2017-11-09T07:29:18.964Z,45
2017-11-09T07:30:20.809Z,45
2017-11-09T07:31:22.610Z,45
2017-11-09T07:32:24.499Z,45
2017-11-09T07:33:26.384Z,45
2017-11-09T07:34:28.273Z,50
2017-11-09T07:35:42.435Z,50
2017-11-09T07:36:44.314Z,50
2017-11-09T07:37:46.220Z,50
2017-11-09T07:38:48.083Z,50
2017-11-09T07:39:49.907Z,50
2017-11-09T07:40:51.727Z,55
2017-11-09T07:41:53.614Z,55
2017-11-09T07:42:55.510Z,55
2017-11-09T07:43:57.395Z,55
2017-11-09T07:45:11.554Z,60
2017-11-09T07:46:13.431Z,60
2017-11-09T07:47:15.318Z,65
2017-11-09T07:48:17.205Z,65
2017-11-09T07:49:19.030Z,65
2017-11-09T07:50:20.848Z,65
2017-11-09T07:51:22.733Z,65
2017-11-09T07:52:24.618Z,65
2017-11-09T07:53:26.505Z,65
2017-11-09T07:54:40.659Z,70
2017-11-09T07:55:42.548Z,70
2017-11-09T07:56:44.436Z,70
2017-11-09T07:57:46.324Z,70
2017-11-09T07:58:48.145Z,70
2017-11-09T07:59:49.966Z,70
2017-11-09T08:00:51.851Z,70
2017-11-09T08:01:53.736Z,70
2017-11-09T08:02:55.621Z,75
2017-11-09T08:04:09.773Z,80
2017-11-09T08:05:11.661Z,80
2017-11-09T08:06:13.557Z,80
2017-11-09T08:07:15.446Z,80
2017-11-09T08:08:17.253Z,80
2017-11-09T08:09:19.071Z,80
2017-11-09T08:10:20.970Z,80
2017-11-09T08:11:22.856Z,80
2017-11-09T08:12:24.748Z,80
2017-11-09T08:13:38.956Z,80
2017-11-09T08:14:40.836Z,80
2017-11-09T08:15:42.719Z,80
2017-11-09T08:16:44.606Z,75
2017-11-09T08:17:46.429Z,75
2017-11-09T08:18:48.250Z,75
2017-11-09T08:19:50.147Z,75
2017-11-09T08:20:52.019Z,80
2017-11-09T08:21:53.907Z,85
2017-11-09T08:23:08.064Z,90
2017-11-09T08:24:09.953Z,90
2017-11-09T08:25:11.834Z,90
2017-11-09T08:26:13.722Z,90
2017-11-09T08:27:15.549Z,90
2017-11-09T08:28:17.368Z,90
2017-11-09T08:29:19.255Z,90
2017-11-09T08:30:21.145Z,90
2017-11-09T08:31:23.029Z,90
2017-11-09T08:32:37.185Z,85
2017-11-09T08:33:39.080Z,85
2017-11-09T08:34:40.958Z,85
2017-11-09T08:35:42.841Z,90
2017-11-09T08:36:44.676Z,90
2017-11-09T08:37:46.491Z,90
2017-11-09T08:38:48.378Z,95
2017-11-09T08:39:50.261Z,95
2017-11-09T08:40:52.151Z,100
2017-11-09T08:42:06.307Z,105
2017-11-09T08:43:08.196Z,105
2017-11-09T08:44:10.093Z,95
2017-11-09T08:45:11.972Z,85
2017-11-09T08:46:13.796Z,80
2017-11-09T08:47:15.627Z,85
2017-11-09T08:48:17.517Z,85
2017-11-09T08:49:19.402Z,90
2017-11-09T08:50:21.289Z,90
2017-11-09T08:51:35.442Z,90
2017-11-09T08:52:37.329Z,90
2017-11-09T08:53:39.214Z,90
2017-11-09T08:54:41.105Z,85
2017-11-09T08:55:42.923Z,85
2017-11-09T08:56:44.741Z,85
2017-11-09T08:57:46.628Z,90
2017-11-09T08:58:48.513Z,90
2017-11-09T08:59:50.406Z,90
2017-11-09T09:01:04.555Z,90
2017-11-09T09:02:06.441Z,90
2017-11-09T09:03:08.329Z,95
2017-11-09T09:04:10.216Z,95
2017-11-09T09:05:12.037Z,95
2017-11-09T09:06:13.861Z,95
2017-11-09T09:07:15.747Z,100
2017-11-09T09:08:17.631Z,100
2017-11-09T09:09:19.520Z,100
2017-11-09T09:10:33.674Z,100
2017-11-09T09:11:35.566Z,100
2017-11-09T09:12:37.445Z,100
2017-11-09T09:13:39.332Z,95
2017-11-09T09:14:41.156Z,95
2017-11-09T09:15:42.976Z,95
2017-11-09T09:16:44.863Z,95
2017-11-09T09:17:46.746Z,95
2017-11-09T09:18:48.636Z,95
2017-11-09T09:20:02.794Z,95
2017-11-09T09:21:04.686Z,95
2017-11-09T09:22:06.565Z,95
2017-11-09T09:23:08.457Z,95
2017-11-09T09:24:10.281Z,95
2017-11-09T09:25:12.099Z,95
2017-11-09T09:26:13.985Z,95
2017-11-09T09:27:15.870Z,95
2017-11-09T09:28:17.757Z,95
2017-11-09T09:29:31.914Z,95
2017-11-09T09:30:33.802Z,95
2017-11-09T09:31:35.686Z,95
2017-11-09T09:32:37.573Z,95
2017-11-09T09:33:39.396Z,95
2017-11-09T09:34:41.216Z,95
2017-11-09T09:35:43.102Z,95
2017-11-09T09:36:44.987Z,100
2017-11-09T09:37:46.875Z,100
2017-11-09T09:39:01.034Z,100
2017-11-09T09:40:02.928Z,105
2017-11-09T09:41:04.810Z,105
2017-11-09T09:42:06.710Z,105
2017-11-09T09:43:08.537Z,105
2017-11-09T09:44:10.359Z,110
2017-11-09T09:45:12.248Z,110
2017-11-09T09:46:14.135Z,110
2017-11-09T09:47:16.022Z,115
2017-11-09T09:48:30.180Z,115
2017-11-09T09:49:32.071Z,115
2017-11-09T09:50:33.959Z,120
2017-11-09T09:51:35.845Z,120
2017-11-09T09:52:37.670Z,120
2017-11-09T09:53:39.490Z,125
2017-11-09T09:54:41.377Z,130
2017-11-09T09:55:43.266Z,125
2017-11-09T09:56:45.155Z,135
2017-11-09T09:57:59.311Z,135
2017-11-09T09:59:01.200Z,135
2017-11-09T10:00:03.085Z,135
2017-11-09T10:01:04.975Z,135
2017-11-09T10:02:06.798Z,135
2017-11-09T10:03:08.618Z,135
2017-11-09T10:04:10.506Z,140
2017-11-09T10:05:12.393Z,140
2017-11-09T10:06:14.279Z,140
2017-11-09T10:07:28.437Z,145
2017-11-09T10:08:30.322Z,145
2017-11-09T10:09:32.207Z,145
2017-11-09T10:10:34.095Z,150
2017-11-09T10:11:35.925Z,150
2017-11-09T10:12:37.747Z,150
2017-11-09T10:13:39.633Z,150
2017-11-09T10:14:41.522Z,150
2017-11-09T10:15:43.409Z,155
2017-11-09T10:16:57.616Z,155
2017-11-09T10:17:59.510Z,160
2017-11-09T10:19:01.391Z,160
2017-11-09T10:20:03.280Z,165
2017-11-09T10:21:05.105Z,165
2017-11-09T10:22:06.925Z,170
2017-11-09T10:23:08.822Z,170
2017-11-09T10:24:10.698Z,175
2017-11-09T10:25:12.596Z,180
2017-11-09T10:26:26.746Z,180
2017-11-09T10:27:28.638Z,180
2017-11-09T10:28:30.522Z,190
2017-11-09T10:29:32.414Z,185
2017-11-09T10:30:34.236Z,185
2017-11-09T10:31:36.061Z,185
2017-11-09T10:32:37.903Z,185
2017-11-09T10:33:39.727Z,185
2017-11-09T10:34:41.546Z,185
2017-11-09T10:35:55.751Z,180
2017-11-09T10:36:57.640Z,180
2017-11-09T10:37:59.525Z,180
2017-11-09T10:39:01.418Z,180
2017-11-09T10:40:03.251Z,180
2017-11-09T10:41:05.065Z,180
2017-11-09T10:42:06.955Z,180
2017-11-09T10:43:08.841Z,180
2017-11-09T10:44:10.729Z,180
2017-11-09T10:45:24.885Z,180
2017-11-09T10:46:26.772Z,180
2017-11-09T10:47:28.657Z,180
2017-11-09T10:48:30.543Z,180
2017-11-09T10:49:32.370Z,185
2017-11-09T10:50:34.193Z,185
2017-11-09T10:51:36.078Z,185
2017-11-09T10:52:37.972Z,185
2017-11-09T10:53:39.851Z,190
2017-11-09T10:54:54.007Z,190
2017-11-09T10:55:55.894Z,190
2017-11-09T10:56:57.778Z,195
2017-11-09T10:57:59.665Z,195
2017-11-09T10:59:01.485Z,195
2017-11-09T11:00:03.306Z,195
2017-11-09T11:01:05.189Z,195
2017-11-09T11:02:07.074Z,195
2017-11-09T11:03:08.959Z,195
2017-11-09T11:04:23.116Z,190
2017-11-09T11:05:25.003Z,185
2017-11-09T11:06:26.887Z,180
2017-11-09T11:07:28.771Z,175
2017-11-09T11:08:30.595Z,170
2017-11-09T11:09:32.417Z,170
2017-11-09T11:10:34.302Z,170
2017-11-09T11:11:36.187Z,165
2017-11-09T11:12:38.080Z,165
2017-11-09T11:13:52.231Z,160
2017-11-09T11:14:54.116Z,160
2017-11-09T11:15:56.003Z,160
2017-11-09T11:16:57.889Z,160
2017-11-09T11:17:59.714Z,160
2017-11-09T11:19:01.538Z,160
2017-11-09T11:20:03.423Z,160
2017-11-09T11:21:05.308Z,160
2017-11-09T11:22:07.221Z,155
2017-11-09T11:23:21.376Z,155
2017-11-09T11:24:23.267Z,155
2017-11-09T11:25:25.150Z,155
2017-11-09T11:26:27.048Z,155
2017-11-09T11:27:28.889Z,155
2017-11-09T11:28:30.713Z,155
2017-11-09T11:29:32.646Z,155
2017-11-09T11:30:34.584Z,150
2017-11-09T11:31:36.524Z,150
2017-11-09T11:32:50.708Z,160
2017-11-09T11:33:52.595Z,170
2017-11-09T11:34:54.479Z,180
2017-11-09T11:35:56.367Z,175
2017-11-09T11:36:58.197Z,175
2017-11-09T11:38:00.013Z,175
2017-11-09T11:39:01.897Z,175
2017-11-09T11:40:03.785Z,175
2017-11-09T11:41:05.672Z,175
2017-11-09T11:42:19.879Z,170
2017-11-09T11:43:21.768Z,170
2017-11-09T11:44:23.653Z,175
2017-11-09T11:45:25.539Z,165
2017-11-09T11:46:27.364Z,160
2017-11-09T11:47:29.185Z,165
2017-11-09T11:48:31.070Z,170
2017-11-09T11:49:32.956Z,170
2017-11-09T11:50:34.842Z,175
2017-11-09T11:51:49.000Z,195
2017-11-09T11:52:50.888Z,200
2017-11-09T11:53:52.770Z,195
2017-11-09T11:54:54.660Z,210
2017-11-09T11:55:56.480Z,225
2017-11-09T11:56:58.301Z,245
2017-11-09T11:58:00.185Z,260
2017-11-09T11:59:02.070Z,260
2017-11-09T12:00:03.921Z,275
2017-11-09T12:01:18.072Z,275
2017-11-09T12:02:19.960Z,265
2017-11-09T12:03:21.844Z,260
2017-11-09T12:04:23.731Z,260
2017-11-09T12:05:25.555Z,260
2017-11-09T12:06:27.379Z,255
2017-11-09T12:07:29.262Z,255
2017-11-09T12:08:31.148Z,250
2017-11-09T12:09:33.036Z,250
2017-11-09T12:10:47.194Z,235
2017-11-09T12:11:49.082Z,235
2017-11-09T12:12:50.967Z,220
2017-11-09T12:13:52.863Z,220
2017-11-09T12:14:54.685Z,205
2017-11-09T12:15:56.509Z,205
2017-11-09T12:16:58.401Z,205
2017-11-09T12:18:00.287Z,200
2017-11-09T12:19:02.183Z,195
2017-11-09T12:20:16.343Z,175
2017-11-09T12:21:18.228Z,160
2017-11-09T12:22:20.116Z,155
2017-11-09T12:23:22.005Z,155
2017-11-09T12:24:23.841Z,150
2017-11-09T12:25:25.656Z,145
2017-11-09T12:26:27.540Z,130
2017-11-09T12:27:29.434Z,120
2017-11-09T12:28:31.318Z,120
2017-11-09T12:29:45.494Z,115
2017-11-09T12:30:47.381Z,105
2017-11-09T12:31:49.270Z,95
2017-11-09T12:32:51.153Z,95
2017-11-09T12:33:52.977Z,100
2017-11-09T12:34:54.809Z,105
2017-11-09T12:35:56.693Z,100
2017-11-09T12:36:58.577Z,90
2017-11-09T12:38:01.068Z,85
2017-11-09T12:39:15.222Z,85
2017-11-09T12:40:17.104Z,85
2017-11-09T12:41:19.056Z,85
2017-11-09T12:42:21.369Z,85
2017-11-09T12:43:23.227Z,80
2017-11-09T12:44:25.044Z,80
2017-11-09T12:45:27.090Z,75
2017-11-09T12:46:28.994Z,70
2017-11-09T12:47:30.953Z,70
2017-11-09T12:48:45.155Z,70
2017-11-09T12:49:47.041Z,75
2017-11-09T12:50:49.008Z,80
2017-11-09T12:51:50.924Z,90
2017-11-09T12:52:52.819Z,95
2017-11-09T12:53:54.684Z,90
2017-11-09T12:54:56.572Z,90
2017-11-09T12:55:58.453Z,85
2017-11-09T12:57:00.374Z,85
2017-11-09T12:58:14.560Z,85
2017-11-09T12:59:16.446Z,95
2017-11-09T13:00:18.329Z,90
2017-11-09T13:01:20.215Z,85
2017-11-09T13:02:22.039Z,75
2017-11-09T13:03:23.885Z,80
2017-11-09T13:04:25.861Z,85
2017-11-09T13:05:27.780Z,90
2017-11-09T13:06:29.964Z,85
2017-11-09T13:07:44.098Z,95
2017-11-09T13:08:45.987Z,105
2017-11-09T13:09:47.872Z,115
2017-11-09T13:10:49.760Z,115
2017-11-09T13:11:51.583Z,125
2017-11-09T13:12:53.442Z,125
2017-11-09T13:13:55.325Z,130
2017-11-09T13:14:57.182Z,135
2017-11-09T13:15:59.076Z,145
2017-11-09T13:17:13.263Z,145
2017-11-09T13:18:15.124Z,135
2017-11-09T13:19:17.011Z,130
2017-11-09T13:20:18.899Z,120
2017-11-09T13:21:20.724Z,115
2017-11-09T13:22:22.548Z,115
2017-11-09T13:23:24.442Z,110
2017-11-09T13:24:26.322Z,110
2017-11-09T13:25:28.210Z,105
2017-11-09T13:26:42.376Z,90
2017-11-09T13:27:44.260Z,85
2017-11-09T13:28:46.146Z,85
2017-11-09T13:29:48.039Z,80
2017-11-09T13:30:49.860Z,75
2017-11-09T13:31:51.693Z,70
2017-11-09T13:32:53.573Z,70
2017-11-09T13:33:55.459Z,70
2017-11-09T13:34:57.345Z,75
2017-11-09T13:36:11.503Z,70
2017-11-09T13:37:13.388Z,65
2017-11-09T13:38:15.274Z,65
2017-11-09T13:39:17.155Z,65
2017-11-09T13:40:19.031Z,60
2017-11-09T13:41:20.859Z,55
2017-11-09T13:42:22.724Z,50
2017-11-09T13:43:24.608Z,55
2017-11-09T13:44:26.493Z,60
2017-11-09T13:45:40.652Z,55
2017-11-09T13:46:42.531Z,55
2017-11-09T13:47:44.418Z,55
2017-11-09T13:48:46.306Z,50
2017-11-09T13:49:48.130Z,45
2017-11-09T13:50:49.952Z,45
2017-11-09T13:51:51.836Z,45
2017-11-09T13:52:53.727Z,40
2017-11-09T13:53:55.606Z,35
2017-11-09T13:55:09.760Z,30
2017-11-09T13:56:11.645Z,30
2017-11-09T13:57:13.525Z,30
2017-11-09T13:58:15.410Z,30
2017-11-09T13:59:17.231Z,35
2017-11-09T14:00:19.078Z,35
2017-11-09T14:01:21.010Z,35
2017-11-09T14:02:22.912Z,35
2017-11-09T14:03:24.799Z,40
2017-11-09T14:04:38.979Z,45
2017-11-09T14:05:40.847Z,45
2017-11-09T14:06:42.733Z,50
2017-11-09T14:07:44.630Z,50
2017-11-09T14:08:46.448Z,50
2017-11-09T14:09:48.271Z,50
2017-11-09T14:10:50.154Z,45
2017-11-09T14:11:52.048Z,45
2017-11-09T14:12:53.931Z,45
2017-11-09T14:14:08.083Z,40
2017-11-09T14:15:09.968Z,35
2017-11-09T14:16:11.851Z,35
2017-11-09T14:17:13.736Z,30
2017-11-09T14:18:15.559Z,30
2017-11-09T14:19:17.381Z,25
2017-11-09T14:20:19.266Z,25
2017-11-09T14:21:21.149Z,20
2017-11-09T14:22:23.034Z,20
2017-11-09T14:23:37.191Z,20
2017-11-09T14:24:39.114Z,20
2017-11-09T14:25:40.961Z,20
2017-11-09T14:26:42.849Z,20
2017-11-09T14:27:44.672Z,20
2017-11-09T14:28:46.492Z,20
2017-11-09T14:29:48.360Z,20
2017-11-09T14:30:50.269Z,20
2017-11-09T14:31:52.152Z,20
2017-11-09T14:33:06.306Z,20
2017-11-09T14:34:08.190Z,20
2017-11-09T14:35:10.074Z,20
2017-11-09T14:36:11.961Z,20
2017-11-09T14:37:13.780Z,15
2017-11-09T14:38:15.604Z,15
2017-11-09T14:39:17.483Z,15
2017-11-09T14:40:19.371Z,15
2017-11-09T14:41:21.255Z,10
2017-11-09T14:42:35.412Z,15
2017-11-09T14:43:37.297Z,15
2017-11-09T14:44:39.181Z,15
2017-11-09T14:45:41.257Z,15
2017-11-09T14:46:43.525Z,15
2017-11-09T14:47:45.682Z,10
2017-11-09T14:48:47.564Z,10
2017-11-09T14:49:49.446Z,10
2017-11-09T14:50:51.331Z,10
2017-11-09T14:52:05.542Z,10
2017-11-09T14:53:07.423Z,5
2017-11-09T14:54:09.303Z,5
2017-11-09T14:55:11.593Z,5
2017-11-09T14:56:14.241Z,5
2017-11-09T14:57:16.698Z,5
2017-11-09T14:58:19.284Z,5
2017-11-09T14:59:22.071Z,5
2017-11-09T15:00:24.831Z,5
2017-11-09T15:02:45.320Z,0
2017-11-09T15:03:47.921Z,0
2017-11-09T15:04:50.690Z,0
2017-11-09T15:05:53.097Z,0
2017-11-09T15:06:56.318Z,0
2017-11-09T15:07:58.674Z,0
2017-11-09T15:09:01.416Z,0
2017-11-09T15:10:03.949Z,0